Time;durP1;ratioP1;P1;durP2;ratioP2;P2;SDS_P1;SDS_P2;PMS_P1;PMS_P2;Temp;Humidity;BMP_temperature;BMP_pressure;BME280_temperature;BME280_humidity;BME280_pressure;Samples;Min_cycle;Max_cycle;Signal;HPM_P1;HPM_P2
2023/10/02 00:01:10;;;;;;;29.40;17.92;;;;;;;20.56;60.39;102020.78;6045653;23;20033;-83
2023/10/02 00:03:39;;;;;;;39.00;18.23;;;;;;;20.74;60.52;102046.75;6073172;23;20371;-82
2023/10/02 00:06:09;;;;;;;31.08;19.38;;;;;;;20.83;60.95;102070.03;6056235;23;20696;-82
2023/10/02 00:08:49;;;;;;;28.30;19.45;;;;;;;20.81;60.98;102072.06;6091692;23;20109;-81
2023/10/02 00:11:39;;;;;;;31.25;18.25;;;;;;;20.57;60.81;102045.91;6063569;23;20025;-81
2023/10/02 00:14:27;;;;;;;27.88;17.08;;;;;;;20.35;60.62;102005.06;6038714;23;20172;-83
2023/10/02 00:16:59;;;;;;;27.60;17.45;;;;;;;20.52;61.28;102035.59;6050821;23;20495;-82
2023/10/02 00:19:36;;;;;;;27.90;17.80;;;;;;;20.67;61.64;102074.41;6065272;23;20018;-82
2023/10/02 00:22:08;;;;;;;26.73;18.42;;;;;;;20.62;61.74;102074.06;6071029;23;20018;-82
2023/10/02 00:24:37;;;;;;;28.30;16.65;;;;;;;20.37;61.88;102032.69;6063442;23;20143;-81
2023/10/02 00:27:08;;;;;;;29.15;19.25;;;;;;;20.28;62.10;102022.91;6086054;23;20454;-82
2023/10/02 00:29:50;;;;;;;32.40;16.83;;;;;;;20.49;62.05;102060.19;6090920;23;20026;-81
2023/10/02 00:32:29;;;;;;;31.15;18.63;;;;;;;20.29;61.99;102029.97;6087562;23;20029;-82
2023/10/02 00:35:00;;;;;;;24.15;17.35;;;;;;;20.46;61.91;102058.69;6059537;23;20057;-82
2023/10/02 00:37:47;;;;;;;22.85;18.23;;;;;;;20.41;61.88;102054.78;6070613;23;20026;-82
2023/10/02 00:40:30;;;;;;;22.47;16.17;;;;;;;20.38;61.28;102053.25;6044330;23;20022;-81
2023/10/02 00:45:54;;;;;;;18.50;14.90;;;;;;;20.36;60.23;102067.91;6041944;23;20292;-82
2023/10/02 00:48:33;;;;;;;19.95;14.80;;;;;;;20.31;60.27;102064.88;6061923;23;20017;-81
2023/10/02 00:51:11;;;;;;;18.40;14.10;;;;;;;20.15;60.12;102039.56;6079808;23;20465;-81
2023/10/02 00:53:48;;;;;;;20.15;14.75;;;;;;;20.28;60.29;102066.06;6082923;23;20021;-81
2023/10/02 00:56:28;;;;;;;18.52;13.65;;;;;;;19.80;60.00;101986.72;6049205;23;20053;-82
2023/10/02 00:59:14;;;;;;;17.65;14.23;;;;;;;20.15;59.84;102050.34;6049684;23;20097;-82
2023/10/02 01:02:05;;;;;;;17.15;12.88;;;;;;;20.25;59.79;102056.44;6022367;23;20331;-82
2023/10/02 01:04:47;;;;;;;13.63;11.52;;;;;;;20.13;59.20;102013.78;6034146;23;20426;-82
2023/10/02 01:07:23;;;;;;;17.02;11.63;;;;;;;20.25;59.20;102034.03;6084396;23;20273;-82
2023/10/02 01:10:08;;;;;;;18.23;12.70;;;;;;;20.22;58.90;102032.50;6060504;23;20097;-81
2023/10/02 01:12:49;;;;;;;17.83;11.90;;;;;;;20.06;58.67;102008.19;6080671;23;20235;-83
2023/10/02 01:15:26;;;;;;;15.40;11.48;;;;;;;20.29;58.59;102046.16;6058336;23;20552;-81
2023/10/02 01:18:29;;;;;;;12.40;10.70;;;;;;;20.22;58.45;102055.91;6054846;23;20301;-82
2023/10/02 01:21:18;;;;;;;19.27;10.68;;;;;;;20.20;58.10;102057.94;6057396;23;20982;-80
2023/10/02 01:24:07;;;;;;;;;;;;;;;20.14;58.34;102059.44;6064352;23;20363;-83
2023/10/02 01:26:50;;;;;;;15.23;10.18;;;;;;;20.04;58.04;102037.16;6069998;23;19920;-82
2023/10/02 01:29:18;;;;;;;13.20;10.82;;;;;;;19.82;58.01;101993.63;6063231;23;20049;-83
2023/10/02 01:31:45;;;;;;;13.40;9.77;;;;;;;19.90;58.32;102013.53;6043816;23;20022;-82
2023/10/02 01:37:32;;;;;;;13.30;10.63;;;;;;;19.82;57.80;102017.06;6083286;23;20028;-82
2023/10/02 01:40:48;;;;;;;10.65;9.50;;;;;;;19.88;57.69;102011.03;6080137;23;20018;-82
2023/10/02 01:43:11;;;;;;;16.75;10.38;;;;;;;19.64;57.58;101971.34;6029676;23;20288;-81
2023/10/02 01:45:48;;;;;;;13.68;10.10;;;;;;;20.11;58.00;102057.06;6060182;23;20018;-82
2023/10/02 01:48:36;;;;;;;15.10;10.35;;;;;;;19.88;57.99;102024.50;6061015;23;20022;-83
2023/10/02 01:51:15;;;;;;;13.30;10.27;;;;;;;19.40;57.69;101953.22;6072505;23;20029;-82
2023/10/02 01:53:44;;;;;;;15.27;10.23;;;;;;;19.76;57.79;102029.34;6110980;23;20431;-81
2023/10/02 01:56:12;;;;;;;13.75;9.55;;;;;;;18.83;57.79;101878.41;6064601;23;20129;-82
2023/10/02 01:58:40;;;;;;;10.32;9.32;;;;;;;20.05;58.00;102063.13;6110507;23;20484;-82
2023/10/02 02:01:09;;;;;;;18.95;9.30;;;;;;;20.05;57.91;102066.66;6066716;23;20026;-82
2023/10/02 02:03:42;;;;;;;13.85;9.73;;;;;;;19.26;57.77;101934.97;6123680;23;20077;-83
2023/10/02 02:06:17;;;;;;;14.90;9.80;;;;;;;19.13;57.97;101919.28;6103012;23;20489;-83
2023/10/02 02:08:52;;;;;;;10.90;9.38;;;;;;;19.14;57.62;101926.34;6050785;23;20022;-84
2023/10/02 02:11:23;;;;;;;15.15;10.27;;;;;;;19.66;57.96;102012.44;6086596;23;20386;-82
2023/10/02 02:14:03;;;;;;;11.40;9.85;;;;;;;19.94;58.45;102058.88;6044966;23;20290;-83
2023/10/02 02:16:35;;;;;;;18.58;9.88;;;;;;;19.39;57.94;101957.78;6033825;23;20818;-81
2023/10/02 02:19:07;;;;;;;14.52;9.88;;;;;;;19.32;57.97;101950.47;6016001;23;20061;-80
2023/10/02 02:21:35;;;;;;;14.02;10.00;;;;;;;19.65;58.00;102008.03;6040398;23;20505;-83
2023/10/02 02:24:08;;;;;;;17.85;10.05;;;;;;;19.76;57.68;102026.63;6009345;23;20519;-81
2023/10/02 02:26:39;;;;;;;17.83;9.50;;;;;;;19.95;57.63;102065.97;6012203;23;20053;-82
2023/10/02 02:29:30;;;;;;;12.93;10.00;;;;;;;19.93;57.62;102067.97;6049627;23;20178;-81
2023/10/02 02:31:56;;;;;;;17.83;10.70;;;;;;;19.81;57.77;102031.53;6060300;23;20049;-81
2023/10/02 02:34:25;;;;;;;12.35;9.75;;;;;;;19.91;57.48;102058.38;6068975;23;20640;-80
2023/10/02 02:36:54;;;;;;;19.10;10.05;;;;;;;19.72;57.37;102027.13;6014186;23;20036;-81
2023/10/02 02:39:22;;;;;;;14.68;9.60;;;;;;;19.79;57.33;102050.56;6014993;23;20022;-82
2023/10/02 02:45:24;;;;;;;13.15;9.60;;;;;;;19.83;57.66;102057.31;6020743;23;20381;-82
2023/10/02 02:47:57;;;;;;;10.75;9.30;;;;;;;19.79;57.90;102058.66;6023671;23;20018;-80
2023/10/02 02:50:35;;;;;;;11.95;9.00;;;;;;;19.83;58.00;102064.53;6009345;23;20049;-82
2023/10/02 02:53:21;;;;;;;13.00;9.68;;;;;;;19.55;58.26;102037.78;6074863;23;20048;-83
2023/10/02 02:56:28;;;;;;;12.82;10.00;;;;;;;19.39;58.33;102011.63;6062757;23;20028;-82
2023/10/02 02:58:56;;;;;;;12.02;9.82;;;;;;;19.73;58.16;102067.34;6002936;23;20342;-81
2023/10/02 03:01:23;;;;;;;11.05;9.95;;;;;;;19.61;58.43;102052.44;6080914;23;20018;-81
2023/10/02 03:04:16;;;;;;;16.35;9.20;;;;;;;19.52;58.32;102031.88;6060806;23;20025;-82
2023/10/02 03:06:44;;;;;;;12.52;9.45;;;;;;;19.74;58.28;102071.75;6080355;23;20069;-81
2023/10/02 03:09:23;;;;;;;12.13;9.50;;;;;;;19.62;58.33;102046.06;6011690;23;20022;-82
2023/10/02 03:12:05;;;;;;;11.82;9.93;;;;;;;19.59;58.20;102044.53;6067059;23;20018;-82
2023/10/02 03:14:40;;;;;;;14.02;10.23;;;;;;;19.69;58.28;102055.22;6015944;23;20180;-81
2023/10/02 03:20:00;;;;;;;18.35;9.98;;;;;;;19.68;57.97;102061.59;6027011;23;20454;-83
2023/10/02 03:22:34;;;;;;;12.48;10.02;;;;;;;19.79;57.58;102066.72;6025435;23;20458;-82
2023/10/02 03:25:25;;;;;;;12.90;9.85;;;;;;;19.73;58.01;102061.97;5998488;23;20319;-81
2023/10/02 03:28:03;;;;;;;14.50;9.25;;;;;;;19.77;58.34;102070.59;6012351;23;20236;-83
2023/10/02 03:30:40;;;;;;;;;;;;;;;19.67;58.41;102073.38;5997834;23;20021;-81
2023/10/02 03:33:22;;;;;;;14.10;9.77;;;;;;;19.54;58.08;102051.41;5992952;23;20244;-82
2023/10/02 03:36:14;;;;;;;10.52;9.27;;;;;;;19.68;57.88;102069.69;6052053;23;20105;-81
2023/10/02 03:38:48;;;;;;;13.90;8.90;;;;;;;19.61;58.09;102074.00;6032760;23;20851;-82
2023/10/02 03:41:44;;;;;;;14.27;9.55;;;;;;;19.32;58.21;102013.28;6042440;23;20036;-82
2023/10/02 03:44:24;;;;;;;11.00;9.10;;;;;;;19.67;58.26;102070.69;5983922;23;20326;-82
2023/10/02 03:47:01;;;;;;;;;;;;;;;19.61;58.44;102076.69;5997808;23;20534;-83
2023/10/02 03:49:28;;;;;;;13.45;9.13;;;;;;;19.58;58.39;102066.25;6017710;23;20016;-81
2023/10/02 03:52:00;;;;;;;11.52;9.40;;;;;;;18.92;58.29;101960.84;6009800;23;20018;-81
2023/10/02 03:54:34;;;;;;;12.63;9.63;;;;;;;18.80;58.53;101959.44;6015131;23;20034;-81
2023/10/02 03:57:07;;;;;;;11.90;9.50;;;;;;;19.38;58.32;102060.25;6031246;23;20022;-81
2023/10/02 03:59:51;;;;;;;13.68;9.95;;;;;;;19.43;58.28;102074.06;6015949;23;20021;-82
2023/10/02 04:02:30;;;;;;;12.07;9.35;;;;;;;19.51;58.44;102078.66;6034910;23;20026;-81
2023/10/02 04:05:07;;;;;;;12.45;9.80;;;;;;;19.46;58.36;102064.84;6046451;23;20030;-81
2023/10/02 04:07:47;;;;;;;12.07;10.02;;;;;;;19.36;57.94;102041.53;6041292;23;20018;-80
2023/10/02 04:10:19;;;;;;;14.82;9.50;;;;;;;19.48;58.41;102068.22;6008949;23;20414;-82
2023/10/02 04:12:53;;;;;;;13.15;9.70;;;;;;;19.41;58.34;102055.38;6029627;23;20106;-81
2023/10/02 04:15:26;;;;;;;12.88;9.18;;;;;;;19.46;58.23;102079.13;6013178;23;20110;-82
2023/10/02 04:17:55;;;;;;;14.68;9.80;;;;;;;19.07;58.25;101997.97;6049487;23;20698;-84
2023/10/02 04:20:28;;;;;;;14.35;9.80;;;;;;;18.33;58.35;101871.00;6015952;23;20274;-83
2023/10/02 04:23:18;;;;;;;10.65;9.50;;;;;;;18.83;58.31;101950.19;6002875;23;20288;-82
2023/10/02 04:25:55;;;;;;;11.23;9.93;;;;;;;19.49;58.22;102070.75;6031691;23;20510;-82
2023/10/02 04:28:38;;;;;;;12.82;9.77;;;;;;;18.96;58.05;101994.53;6002984;23;20444;-82
2023/10/02 04:31:09;;;;;;;10.27;9.13;;;;;;;18.18;57.72;101851.03;6015903;23;20020;-82
2023/10/02 04:33:52;;;;;;;10.20;9.20;;;;;;;19.19;57.75;102010.97;6088372;23;20025;-83
2023/10/02 04:36:34;;;;;;;15.65;9.32;;;;;;;19.48;57.92;102057.44;6062824;23;20045;-81
2023/10/02 04:39:11;;;;;;;11.60;9.60;;;;;;;19.60;58.35;102083.09;6055923;23;20617;-82
2023/10/02 04:42:09;;;;;;;12.23;9.43;;;;;;;19.49;58.17;102061.81;6082747;23;20033;-82
2023/10/02 04:44:44;;;;;;;11.93;10.25;;;;;;;19.34;58.40;102038.16;6047361;23;20528;-83
2023/10/02 04:47:20;;;;;;;12.65;9.60;;;;;;;19.58;58.44;102077.03;6048355;23;20018;-83
2023/10/02 04:52:58;;;;;;;13.85;10.45;;;;;;;19.56;58.36;102077.16;6055037;23;20026;-82
2023/10/02 04:55:41;;;;;;;16.08;10.43;;;;;;;18.84;58.41;101963.50;6046640;23;20478;-82
2023/10/02 04:58:20;;;;;;;12.52;9.70;;;;;;;19.50;58.52;102067.03;6039126;23;20173;-82
2023/10/02 05:03:36;;;;;;;41.67;32.85;;;;;;;19.57;58.68;102083.44;6087251;23;20101;-81
2023/10/02 05:06:16;;;;;;;17.60;11.35;;;;;;;19.51;58.36;102073.28;6048634;23;20041;-82
2023/10/02 05:11:50;;;;;;;13.00;11.20;;;;;;;19.53;59.21;102088.28;6087432;23;20072;-81
2023/10/02 05:14:26;;;;;;;19.88;11.32;;;;;;;19.47;59.11;102085.34;6049788;23;20022;-80
2023/10/02 05:17:49;;;;;;;20.35;11.52;;;;;;;19.55;59.07;102088.13;6083864;23;20025;-80
2023/10/02 05:20:19;;;;;;;21.48;12.07;;;;;;;19.58;59.20;102095.88;6091639;23;20029;-81
2023/10/02 05:22:58;;;;;;;31.38;12.75;;;;;;;19.50;59.00;102063.50;6071510;23;20014;-81
2023/10/02 05:25:27;;;;;;;26.42;13.27;;;;;;;19.56;58.76;102070.94;6069309;23;20021;-81
2023/10/02 05:27:55;;;;;;;21.48;12.93;;;;;;;19.65;59.02;102097.75;6063338;23;20022;-83
2023/10/02 05:30:27;;;;;;;18.65;12.60;;;;;;;19.67;58.92;102089.53;6065018;23;20029;-80
2023/10/02 05:32:56;;;;;;;23.75;12.90;;;;;;;19.49;59.55;102080.66;6070468;23;20273;-83
2023/10/02 05:35:23;;;;;;;22.02;13.35;;;;;;;19.64;59.29;102106.88;6070351;23;20328;-81
2023/10/02 05:37:54;;;;;;;20.13;14.15;;;;;;;19.38;58.72;102044.94;6071153;23;20425;-78
2023/10/02 05:45:47;;;;;;;20.30;13.63;;;;;;;19.70;59.46;102101.88;6075636;23;20284;-79
2023/10/02 05:51:01;;;;;;;16.42;12.18;;;;;;;19.33;59.55;102055.34;6084497;23;20089;-82
2023/10/02 05:53:37;;;;;;;17.05;11.07;;;;;;;19.62;59.93;102108.88;6059304;23;20022;-81
2023/10/02 05:58:42;;;;;;;16.35;11.55;;;;;;;19.60;60.12;102115.41;6079438;23;20021;-80
2023/10/02 06:01:18;;;;;;;21.20;12.13;;;;;;;19.53;60.40;102109.81;6051165;23;20026;-79
2023/10/02 06:03:56;;;;;;;17.90;12.50;;;;;;;19.56;60.02;102117.56;6041987;23;20120;-79
2023/10/02 06:06:27;;;;;;;19.77;12.25;;;;;;;19.57;60.52;102118.44;6048949;23;20465;-82
2023/10/02 06:09:43;;;;;;;17.65;11.70;;;;;;;19.58;60.01;102120.13;6049450;23;20045;-78
2023/10/02 06:12:02;;;;;;;15.88;11.98;;;;;;;19.62;60.52;102119.66;6071405;23;20068;-79
2023/10/02 06:14:38;;;;;;;17.42;12.43;;;;;;;19.55;60.54;102101.59;6069029;23;20022;-81
2023/10/02 06:17:11;;;;;;;15.23;11.85;;;;;;;19.67;60.81;102124.56;6094889;23;20069;-78
2023/10/02 06:19:44;;;;;;;15.88;13.07;;;;;;;19.30;60.43;102055.66;6067907;23;20106;-78
2023/10/02 06:22:19;;;;;;;24.38;14.00;;;;;;;19.69;61.21;102122.59;6073561;23;20138;-79
2023/10/02 06:24:48;;;;;;;20.02;12.38;;;;;;;19.79;60.87;102136.78;6076050;23;20026;-80
2023/10/02 06:27:25;;;;;;;24.08;13.02;;;;;;;19.53;61.26;102098.19;6055682;23;20346;-80
2023/10/02 06:29:57;;;;;;;23.63;13.30;;;;;;;19.84;61.29;102145.22;6045764;23;20017;-79
2023/10/02 06:32:32;;;;;;;15.50;11.57;;;;;;;19.77;60.42;102125.31;6060250;23;20033;-81
2023/10/02 06:35:06;;;;;;;24.23;12.55;;;;;;;19.82;60.85;102130.22;6047786;23;20040;-78
2023/10/02 06:37:40;;;;;;;22.35;12.80;;;;;;;19.60;60.79;102100.09;6051085;23;20507;-79
2023/10/02 06:40:23;;;;;;;21.40;12.25;;;;;;;19.99;60.55;102155.41;6081900;23;20229;-79
2023/10/02 06:43:00;;;;;;;41.70;15.18;;;;;;;20.02;60.19;102161.31;6066444;23;20457;-77
2023/10/02 06:45:29;;;;;;;46.50;13.90;;;;;;;19.99;59.87;102139.25;6054597;23;20034;-80
2023/10/02 06:47:56;;;;;;;27.33;14.02;;;;;;;19.94;59.11;102123.56;6050535;23;20076;-79
2023/10/02 06:50:27;;;;;;;21.67;12.95;;;;;;;20.01;58.31;102123.75;6068715;23;20022;-80
2023/10/02 06:52:57;;;;;;;25.95;13.30;;;;;;;20.31;58.13;102161.97;6078140;23;20025;-79
2023/10/02 06:55:32;;;;;;;23.35;14.70;;;;;;;20.31;57.71;102156.56;6045567;23;20127;-80
2023/10/02 06:57:59;;;;;;;25.45;14.15;;;;;;;20.43;58.28;102157.94;6051460;23;20036;-79
2023/10/02 07:00:54;;;;;;;25.08;13.15;;;;;;;20.43;58.25;102158.78;6050503;23;20224;-80
2023/10/02 07:03:17;;;;;;;27.15;14.30;;;;;;;20.34;57.97;102135.53;6069945;23;20018;-80
2023/10/02 07:05:48;;;;;;;22.17;14.75;;;;;;;20.37;58.76;102135.19;6124069;23;20033;-80
2023/10/02 07:08:22;;;;;;;32.67;14.52;;;;;;;20.22;57.90;102099.91;6065981;23;20053;-79
2023/10/02 07:10:51;;;;;;;24.15;13.95;;;;;;;20.68;58.72;102173.25;6064068;23;20014;-79
2023/10/02 07:13:22;;;;;;;26.50;14.82;;;;;;;20.55;58.01;102140.47;6108631;23;20492;-79
2023/10/02 07:15:59;;;;;;;33.25;14.38;;;;;;;20.72;58.29;102154.03;6070585;23;20022;-80
2023/10/02 07:18:37;;;;;;;25.25;14.43;;;;;;;20.84;57.74;102175.13;6056531;23;20215;-79
2023/10/02 07:21:09;;;;;;;21.35;14.00;;;;;;;20.65;57.80;102133.09;6047290;23;20724;-81
2023/10/02 07:23:45;;;;;;;22.83;13.17;;;;;;;20.88;58.23;102164.84;6063677;23;20030;-81
2023/10/02 07:26:45;;;;;;;25.70;13.60;;;;;;;20.65;58.60;102116.91;6089029;23;20024;-78
2023/10/02 07:29:05;;;;;;;;;;;;;;;21.07;58.11;102174.50;6054614;23;20030;-79
2023/10/02 07:31:32;;;;;;;22.15;11.98;;;;;;;20.90;57.14;102147.47;6048166;23;20252;-78
2023/10/02 07:33:59;;;;;;;24.48;11.43;;;;;;;21.24;56.84;102183.41;6045604;23;20370;-79
2023/10/02 07:36:32;;;;;;;15.02;10.07;;;;;;;21.30;55.55;102177.38;6078217;23;20021;-80
2023/10/02 07:39:00;;;;;;;14.80;10.43;;;;;;;21.22;54.62;102161.16;6046209;23;20032;-81
2023/10/02 07:41:29;;;;;;;16.98;10.38;;;;;;;21.34;55.28;102170.63;6036418;23;20393;-80
2023/10/02 07:44:09;;;;;;;16.42;10.02;;;;;;;21.40;54.18;102172.66;6060241;23;20105;-81
2023/10/02 07:46:36;;;;;;;14.18;9.68;;;;;;;21.42;54.28;102177.91;6063961;23;20097;-81
2023/10/02 07:49:05;;;;;;;17.08;10.20;;;;;;;21.52;54.04;102184.81;6065554;23;20028;-80
2023/10/02 07:51:36;;;;;;;14.80;10.57;;;;;;;21.48;53.83;102167.25;6060477;23;20014;-81
2023/10/02 07:54:13;;;;;;;14.13;9.85;;;;;;;21.65;53.53;102183.44;6051284;23;20057;-81
2023/10/02 07:56:41;;;;;;;13.27;9.48;;;;;;;21.61;52.92;102166.72;6042025;23;20250;-81
2023/10/02 07:59:11;;;;;;;12.40;9.82;;;;;;;21.70;53.09;102186.47;6054184;23;20476;-81
2023/10/02 08:01:39;;;;;;;11.05;9.40;;;;;;;21.41;53.38;102128.44;6060763;23;20461;-82
2023/10/02 08:04:06;;;;;;;15.85;9.50;;;;;;;21.59;53.12;102136.34;6041940;23;20088;-84
2023/10/02 08:06:44;;;;;;;13.25;9.90;;;;;;;21.89;53.66;102186.09;6066804;23;20442;-82
2023/10/02 08:09:39;;;;;;;16.35;9.65;;;;;;;21.28;53.47;102084.84;6092511;23;20418;-82
2023/10/02 08:12:08;;;;;;;12.73;10.43;;;;;;;20.97;53.41;102026.19;6041279;23;20018;-81
2023/10/02 08:14:38;;;;;;;20.60;11.35;;;;;;;21.39;53.09;102081.84;6076112;23;20339;-82
2023/10/02 08:17:17;;;;;;;21.65;11.95;;;;;;;21.60;53.25;102115.56;6092899;23;20461;-82
2023/10/02 08:19:56;;;;;;;17.85;11.40;;;;;;;21.53;52.88;102081.13;6038252;23;20406;-82
2023/10/02 08:22:27;;;;;;;17.45;11.32;;;;;;;22.12;52.37;102169.13;6036586;23;20037;-80
2023/10/02 08:24:56;;;;;;;15.37;11.00;;;;;;;22.23;52.99;102200.38;6092703;23;20231;-81
2023/10/02 08:27:27;;;;;;;19.17;10.75;;;;;;;22.00;53.15;102157.00;6066123;23;20500;-79
2023/10/02 08:30:01;;;;;;;21.02;11.15;;;;;;;22.29;52.24;102192.44;6057653;23;20049;-81
2023/10/02 08:32:30;;;;;;;19.40;10.85;;;;;;;22.12;52.39;102166.44;6056046;23;20018;-81
2023/10/02 08:34:57;;;;;;;17.27;10.95;;;;;;;21.63;52.51;102088.22;6065832;23;20028;-79
2023/10/02 08:37:25;;;;;;;14.90;10.55;;;;;;;22.10;51.91;102144.13;6067070;23;20022;-82
2023/10/02 08:39:52;;;;;;;14.00;9.75;;;;;;;22.42;51.14;102182.91;6045240;23;20093;-82
2023/10/02 08:42:26;;;;;;;14.45;10.45;;;;;;;21.71;51.20;102058.44;6079097;23;20188;-81
2023/10/02 08:44:58;;;;;;;17.60;10.73;;;;;;;22.54;51.46;102176.06;6082594;23;20097;-78
2023/10/02 08:47:30;;;;;;;13.75;10.57;;;;;;;22.13;50.74;102085.09;6038143;23;20022;-80
2023/10/02 08:50:04;;;;;;;;;;;;;;;22.48;50.42;102126.22;6056424;23;20025;-80
2023/10/02 08:52:38;;;;;;;15.35;10.63;;;;;;;22.81;50.04;102164.72;6034132;23;19927;-79
2023/10/02 08:55:35;;;;;;;14.23;10.55;;;;;;;22.86;49.84;102166.91;6055205;23;20346;-80
2023/10/02 08:58:19;;;;;;;18.33;10.63;;;;;;;22.97;49.41;102162.94;5985939;23;20026;-80
2023/10/02 09:04:21;;;;;;;11.10;9.98;;;;;;;23.40;49.13;102175.00;6065075;23;20036;-78
2023/10/02 09:06:58;;;;;;;17.08;11.32;;;;;;;23.14;48.73;102115.78;6089776;23;20052;-79
2023/10/02 09:09:27;;;;;;;13.75;9.63;;;;;;;23.64;48.20;102171.19;6059818;23;20022;-80
2023/10/02 09:11:58;;;;;;;19.00;10.27;;;;;;;23.60;47.94;102136.50;6046609;23;20053;-81
2023/10/02 09:17:20;;;;;;;13.43;10.18;;;;;;;23.95;46.71;102153.94;6053755;23;20268;-81
2023/10/02 09:20:07;;;;;;;13.60;10.60;;;;;;;24.13;46.68;102136.41;6057051;23;20097;-83
2023/10/02 09:22:38;;;;;;;17.25;10.88;;;;;;;24.04;46.42;102103.16;6054009;23;20497;-80
2023/10/02 09:25:15;;;;;;;12.13;9.57;;;;;;;24.19;46.20;102094.97;6024217;23;20413;-82
2023/10/02 09:28:13;;;;;;;13.50;10.10;;;;;;;24.30;45.61;102097.22;6035953;23;20292;-81
2023/10/02 09:30:41;;;;;;;17.52;10.48;;;;;;;24.55;45.81;102107.75;6050564;23;20024;-83
2023/10/02 09:33:47;;;;;;;15.63;10.93;;;;;;;24.84;45.96;102118.47;6055222;23;20348;-85
2023/10/02 09:36:47;;;;;;;16.88;10.23;;;;;;;25.26;44.78;102145.84;6076634;23;20458;-80
2023/10/02 09:39:38;;;;;;;16.38;11.15;;;;;;;25.00;44.42;102057.63;6075597;23;20025;-80
2023/10/02 09:42:07;;;;;;;;;;;;;;;25.64;43.35;102146.31;6045239;23;20324;-81
2023/10/02 09:44:45;;;;;;;16.48;10.68;;;;;;;24.57;43.49;101953.66;6060944;23;20324;-81
2023/10/02 09:47:24;;;;;;;11.40;9.43;;;;;;;25.79;43.56;102127.16;6075673;23;20030;-81
2023/10/02 09:50:11;;;;;;;15.85;9.75;;;;;;;25.39;43.68;102050.81;6080299;23;20724;-81
2023/10/02 09:52:58;;;;;;;18.85;11.05;;;;;;;25.25;43.83;102006.41;6055850;23;20072;-81
2023/10/02 09:55:56;;;;;;;15.32;9.88;;;;;;;26.27;43.57;102134.56;6036570;23;20445;-81
2023/10/02 09:58:44;;;;;;;22.33;11.02;;;;;;;26.10;43.48;102066.03;6087159;23;20026;-80
2023/10/02 10:04:00;;;;;;;23.75;11.10;;;;;;;26.44;42.79;102081.41;6049102;23;20481;-80
2023/10/02 10:06:41;;;;;;;22.77;11.43;;;;;;;26.68;42.38;102103.66;6043688;23;20397;-81
2023/10/02 10:09:20;;;;;;;17.95;10.38;;;;;;;26.82;41.95;102099.91;6077914;23;20352;-81
2023/10/02 10:14:41;;;;;;;17.23;10.55;;;;;;;27.30;41.40;102112.53;6089750;23;20045;-81
2023/10/02 10:17:21;;;;;;;17.10;11.30;;;;;;;26.67;40.57;101988.44;6053087;23;20337;-82
2023/10/02 10:20:18;;;;;;;;;;;;;;;27.59;40.15;102128.41;6093601;23;20022;-83
2023/10/02 10:22:57;;;;;;;16.98;10.20;;;;;;;27.55;40.63;102102.66;6077269;23;19956;-83
2023/10/02 10:25:45;;;;;;;16.00;10.40;;;;;;;27.69;39.10;102087.88;6058152;23;20039;-84
2023/10/02 10:28:50;;;;;;;14.90;10.15;;;;;;;27.94;39.34;102124.56;6047794;23;20024;-84
2023/10/02 10:31:33;;;;;;;17.77;11.57;;;;;;;28.08;39.58;102126.22;6033784;23;20032;-82
2023/10/02 10:34:00;;;;;;;15.77;10.88;;;;;;;28.29;39.79;102112.25;6060389;23;20846;-83
2023/10/02 10:36:39;;;;;;;14.65;11.43;;;;;;;28.17;39.57;102064.84;6047744;23;20473;-81
2023/10/02 10:39:44;;;;;;;21.38;11.18;;;;;;;28.69;38.34;102111.19;6053010;23;20216;-85
2023/10/02 10:42:11;;;;;;;21.63;11.90;;;;;;;28.71;38.98;102093.50;6076795;23;20106;-83
2023/10/02 10:44:43;;;;;;;17.33;10.73;;;;;;;28.45;38.53;102031.75;6033581;23;20450;-83
2023/10/02 10:47:14;;;;;;;22.45;13.60;;;;;;;28.63;37.74;102049.25;6049026;23;20041;-84
2023/10/02 10:50:11;;;;;;;15.95;11.73;;;;;;;29.23;37.65;102106.19;6028514;23;20032;-83
2023/10/02 10:52:44;;;;;;;15.43;11.27;;;;;;;28.50;37.93;101993.66;6040132;23;20136;-83
2023/10/02 10:55:32;;;;;;;18.70;12.20;;;;;;;29.34;37.67;102109.00;6050251;23;20387;-88
2023/10/02 10:58:02;;;;;;;15.70;11.70;;;;;;;29.54;37.58;102103.34;6099718;23;20034;-83
2023/10/02 11:00:50;;;;;;;16.33;11.88;;;;;;;29.72;36.86;102109.91;6033577;23;20314;-85
2023/10/02 11:03:26;;;;;;;17.70;12.43;;;;;;;29.45;36.73;102032.75;6041700;23;20350;-82
2023/10/02 11:06:04;;;;;;;18.13;12.88;;;;;;;29.99;35.82;102104.94;6065941;23;20022;-84
2023/10/02 11:08:37;;;;;;;16.50;13.35;;;;;;;29.61;36.29;102038.44;6079450;23;20243;-83
2023/10/02 11:11:11;;;;;;;17.70;12.10;;;;;;;29.63;36.31;102018.22;6036866;23;20727;-81
2023/10/02 11:13:51;;;;;;;15.82;12.07;;;;;;;30.12;35.55;102084.75;6058662;23;20018;-81
2023/10/02 11:16:37;;;;;;;15.55;12.30;;;;;;;30.04;35.86;102075.81;6021630;23;20022;-83
2023/10/02 11:19:25;;;;;;;14.35;12.38;;;;;;;29.97;35.70;102049.59;6040412;23;20621;-83
2023/10/02 11:22:01;;;;;;;17.35;12.52;;;;;;;30.28;35.20;102081.41;6053294;23;20022;-83
2023/10/02 11:24:29;;;;;;;14.27;12.57;;;;;;;30.23;35.54;102068.38;6087651;23;20540;-83
2023/10/02 11:27:06;;;;;;;18.73;12.95;;;;;;;30.08;35.73;102047.97;6039219;23;20028;-83
2023/10/02 11:30:00;;;;;;;19.95;12.68;;;;;;;29.88;36.14;102038.13;6073590;23;20533;-83
2023/10/02 11:32:54;;;;;;;17.55;12.38;;;;;;;29.76;36.40;102073.66;6080002;23;20508;-84
2023/10/02 11:35:28;;;;;;;19.15;12.60;;;;;;;29.37;36.57;102042.91;6084595;23;20022;-84
2023/10/02 11:37:58;;;;;;;14.40;11.95;;;;;;;28.77;36.96;101974.31;6070530;23;20026;-81
2023/10/02 11:40:28;;;;;;;15.38;12.60;;;;;;;28.72;37.17;101985.91;6082373;23;20427;-83
2023/10/02 11:42:59;;;;;;;24.02;13.82;;;;;;;28.20;37.69;101916.16;6036098;23;20037;-82
2023/10/02 11:45:29;;;;;;;14.45;12.40;;;;;;;28.17;37.78;101930.25;6059008;23;20084;-83
2023/10/02 11:47:57;;;;;;;19.77;11.90;;;;;;;28.21;37.76;101929.59;6043651;23;20543;-82
2023/10/02 11:50:28;;;;;;;18.08;12.23;;;;;;;28.67;37.70;102010.34;6068025;23;20026;-82
2023/10/02 11:52:55;;;;;;;19.38;12.40;;;;;;;28.79;37.83;102045.13;6094421;23;20026;-82
2023/10/02 11:55:23;;;;;;;19.17;12.68;;;;;;;28.79;37.86;102037.78;6066381;23;20311;-82
2023/10/02 11:57:55;;;;;;;19.85;13.43;;;;;;;28.25;38.61;101985.41;6065802;23;20377;-81
2023/10/02 12:00:26;;;;;;;20.85;12.70;;;;;;;28.31;38.72;102011.84;6055621;23;20057;-81
2023/10/02 12:02:59;;;;;;;17.42;12.52;;;;;;;27.90;39.00;101928.53;6052772;23;20362;-81
2023/10/02 12:05:36;;;;;;;15.55;13.50;;;;;;;28.45;39.09;102022.66;6037658;23;20450;-81
2023/10/02 12:08:04;;;;;;;18.27;13.50;;;;;;;27.30;39.74;101850.81;6006183;23;20312;-82
2023/10/02 12:10:31;;;;;;;17.60;11.95;;;;;;;28.31;39.75;102021.94;6018246;23;20527;-82
2023/10/02 12:13:02;;;;;;;13.80;11.43;;;;;;;28.30;38.79;102014.78;6059437;23;20077;-81
2023/10/02 12:15:32;;;;;;;15.80;11.82;;;;;;;27.53;39.29;101892.00;6056920;23;20133;-82
2023/10/02 12:18:00;;;;;;;18.15;11.57;;;;;;;28.20;39.41;102012.53;6057027;23;20431;-81
2023/10/02 12:20:27;;;;;;;19.30;12.80;;;;;;;27.49;39.54;101905.22;6066388;23;20089;-81
2023/10/02 12:22:56;;;;;;;22.13;12.43;;;;;;;28.08;39.18;102000.63;6088447;23;20376;-81
2023/10/02 12:25:23;;;;;;;19.38;12.18;;;;;;;28.10;39.46;101993.06;6056310;23;20390;-82
2023/10/02 12:27:52;;;;;;;40.08;14.18;;;;;;;28.14;39.04;101999.78;6048449;23;20355;-80
2023/10/02 12:30:19;;;;;;;16.00;12.00;;;;;;;28.00;39.71;101996.28;6074903;23;20259;-84
2023/10/02 12:32:50;;;;;;;21.73;11.45;;;;;;;27.80;39.22;101955.44;6056112;23;20053;-82
2023/10/02 12:35:22;;;;;;;15.85;11.77;;;;;;;27.60;39.38;101938.31;6051971;23;20200;-82
2023/10/02 12:37:55;;;;;;;20.73;12.85;;;;;;;27.42;39.29;101907.16;6054928;23;20342;-81
2023/10/02 12:40:31;;;;;;;21.90;13.30;;;;;;;27.82;39.11;101986.09;6049495;23;20069;-82